Bjerringbro, Denmark
Current Conditions -  °F | °C
As of 6:50 PM on Monday 24 Nov 2014 (Local Time) from EKKA Reporting Station
Clear Clear  
Wind Chill: 37°   Ceiling: Unl
Heat Index: 43°   Visibility: 6mi
Dew Point: 41°   Wind: 9mph
Humidity: 93%   Direction: 270°W
Pressure: 30.06"   Gusts: NA
Location:  56.38°N, 9.66°E
Report Text: EKKA 241750Z AUTO 27008KT 9999NDV NCD 06/05 Q1018 NOSIG
Loading
Personal Weather Stations






























Interactive Weather Map New forecast layout! Learn more

10-Day Weather Forecast

Advertisements
Track Severe Weather on mobile